sensor_id;sensor_type;location;lat;lon;timestamp;P1;durP1;ratioP1;P2;durP2;ratioP2
9934;SDS011;5006;41.828;23.478;2022-12-29T00:00:19;5.88;;;4.97;;
9934;SDS011;5006;41.828;23.478;2022-12-29T00:01:25;7.22;;;5.38;;
9934;SDS011;5006;41.828;23.478;2022-12-29T00:02:30;6.53;;;5.00;;
9934;SDS011;5006;41.828;23.478;2022-12-29T00:03:35;6.78;;;4.95;;
9934;SDS011;5006;41.828;23.478;2022-12-29T00:04:40;6.38;;;4.88;;
9934;SDS011;5006;41.828;23.478;2022-12-29T00:05:47;5.45;;;4.50;;
9934;SDS011;5006;41.828;23.478;2022-12-29T00:06:59;4.90;;;4.40;;
9934;SDS011;5006;41.828;23.478;2022-12-29T00:08:06;5.53;;;4.32;;
9934;SDS011;5006;41.828;23.478;2022-12-29T00:09:11;4.95;;;4.45;;
9934;SDS011;5006;41.828;23.478;2022-12-29T00:10:17;5.93;;;5.30;;
9934;SDS011;5006;41.828;23.478;2022-12-29T00:11:23;5.38;;;4.85;;
9934;SDS011;5006;41.828;23.478;2022-12-29T00:12:31;5.55;;;4.90;;
9934;SDS011;5006;41.828;23.478;2022-12-29T00:13:51;4.63;;;4.22;;
9934;SDS011;5006;41.828;23.478;2022-12-29T00:15:14;5.28;;;4.78;;
9934;SDS011;5006;41.828;23.478;2022-12-29T00:16:39;6.07;;;5.47;;
9934;SDS011;5006;41.828;23.478;2022-12-29T00:17:46;7.65;;;5.40;;
9934;SDS011;5006;41.828;23.478;2022-12-29T00:18:51;6.93;;;5.45;;
9934;SDS011;5006;41.828;23.478;2022-12-29T00:19:57;8.07;;;6.78;;
9934;SDS011;5006;41.828;23.478;2022-12-29T00:21:20;9.00;;;7.13;;
9934;SDS011;5006;41.828;23.478;2022-12-29T00:22:45;8.45;;;6.15;;
9934;SDS011;5006;41.828;23.478;2022-12-29T00:24:14;6.68;;;5.97;;
9934;SDS011;5006;41.828;23.478;2022-12-29T00:25:38;6.28;;;5.13;;
9934;SDS011;5006;41.828;23.478;2022-12-29T00:27:10;6.38;;;5.78;;
9934;SDS011;5006;41.828;23.478;2022-12-29T00:28:34;6.30;;;5.15;;
9934;SDS011;5006;41.828;23.478;2022-12-29T00:29:57;6.03;;;5.43;;
9934;SDS011;5006;41.828;23.478;2022-12-29T00:31:21;6.13;;;5.53;;
9934;SDS011;5006;41.828;23.478;2022-12-29T00:32:44;6.03;;;5.32;;
9934;SDS011;5006;41.828;23.478;2022-12-29T00:34:08;5.90;;;5.30;;
9934;SDS011;5006;41.828;23.478;2022-12-29T00:35:34;5.80;;;5.07;;
9934;SDS011;5006;41.828;23.478;2022-12-29T00:36:48;5.97;;;5.32;;
9934;SDS011;5006;41.828;23.478;2022-12-29T00:37:52;4.90;;;4.40;;
9934;SDS011;5006;41.828;23.478;2022-12-29T00:39:19;6.45;;;5.28;;
9934;SDS011;5006;41.828;23.478;2022-12-29T00:40:42;6.05;;;5.45;;
9934;SDS011;5006;41.828;23.478;2022-12-29T00:42:06;6.53;;;5.82;;
9934;SDS011;5006;41.828;23.478;2022-12-29T00:43:30;6.65;;;6.00;;
9934;SDS011;5006;41.828;23.478;2022-12-29T00:44:53;6.43;;;5.75;;
9934;SDS011;5006;41.828;23.478;2022-12-29T00:45:59;6.65;;;5.78;;
9934;SDS011;5006;41.828;23.478;2022-12-29T00:47:03;5.82;;;5.22;;
9934;SDS011;5006;41.828;23.478;2022-12-29T00:48:10;5.20;;;4.70;;
9934;SDS011;5006;41.828;23.478;2022-12-29T00:49:14;5.72;;;5.13;;
9934;SDS011;5006;41.828;23.478;2022-12-29T00:50:34;6.63;;;5.65;;
9934;SDS011;5006;41.828;23.478;2022-12-29T00:51:40;19.38;;;16.17;;
9934;SDS011;5006;41.828;23.478;2022-12-29T00:52:45;11.48;;;9.23;;
9934;SDS011;5006;41.828;23.478;2022-12-29T00:53:51;8.68;;;7.68;;
9934;SDS011;5006;41.828;23.478;2022-12-29T00:54:57;18.70;;;15.70;;
9934;SDS011;5006;41.828;23.478;2022-12-29T00:56:03;15.63;;;13.40;;
9934;SDS011;5006;41.828;23.478;2022-12-29T00:57:08;18.75;;;15.45;;
9934;SDS011;5006;41.828;23.478;2022-12-29T00:58:16;17.10;;;14.07;;
9934;SDS011;5006;41.828;23.478;2022-12-29T00:59:21;10.90;;;9.68;;
9934;SDS011;5006;41.828;23.478;2022-12-29T01:00:27;8.77;;;7.80;;
9934;SDS011;5006;41.828;23.478;2022-12-29T01:01:33;8.35;;;7.35;;
9934;SDS011;5006;41.828;23.478;2022-12-29T01:02:40;7.95;;;7.15;;
9934;SDS011;5006;41.828;23.478;2022-12-29T01:03:45;13.93;;;11.75;;
9934;SDS011;5006;41.828;23.478;2022-12-29T01:04:50;29.27;;;22.48;;
9934;SDS011;5006;41.828;23.478;2022-12-29T01:05:56;42.28;;;31.55;;
9934;SDS011;5006;41.828;23.478;2022-12-29T01:07:01;18.67;;;14.50;;
9934;SDS011;5006;41.828;23.478;2022-12-29T01:08:07;15.82;;;12.18;;
9934;SDS011;5006;41.828;23.478;2022-12-29T01:09:12;10.07;;;9.00;;
9934;SDS011;5006;41.828;23.478;2022-12-29T01:10:37;6.60;;;5.95;;
9934;SDS011;5006;41.828;23.478;2022-12-29T01:11:42;6.13;;;5.45;;
9934;SDS011;5006;41.828;23.478;2022-12-29T01:12:48;6.40;;;5.32;;
9934;SDS011;5006;41.828;23.478;2022-12-29T01:13:54;6.63;;;6.00;;
9934;SDS011;5006;41.828;23.478;2022-12-29T01:14:59;7.40;;;6.60;;
9934;SDS011;5006;41.828;23.478;2022-12-29T01:16:04;6.80;;;6.10;;
9934;SDS011;5006;41.828;23.478;2022-12-29T01:17:10;6.78;;;6.07;;
9934;SDS011;5006;41.828;23.478;2022-12-29T01:18:16;6.72;;;6.03;;
9934;SDS011;5006;41.828;23.478;2022-12-29T01:19:22;7.68;;;6.68;;
9934;SDS011;5006;41.828;23.478;2022-12-29T01:20:27;6.13;;;5.53;;
9934;SDS011;5006;41.828;23.478;2022-12-29T01:21:34;8.15;;;5.75;;
9934;SDS011;5006;41.828;23.478;2022-12-29T01:22:39;10.98;;;6.03;;
9934;SDS011;5006;41.828;23.478;2022-12-29T01:23:46;22.13;;;18.85;;
9934;SDS011;5006;41.828;23.478;2022-12-29T01:24:50;27.75;;;22.13;;
9934;SDS011;5006;41.828;23.478;2022-12-29T01:25:57;21.77;;;17.85;;
9934;SDS011;5006;41.828;23.478;2022-12-29T01:27:13;17.48;;;13.38;;
9934;SDS011;5006;41.828;23.478;2022-12-29T01:28:19;11.02;;;9.88;;
9934;SDS011;5006;41.828;23.478;2022-12-29T01:29:23;8.18;;;7.00;;
9934;SDS011;5006;41.828;23.478;2022-12-29T01:30:29;9.00;;;6.50;;
9934;SDS011;5006;41.828;23.478;2022-12-29T01:31:34;10.98;;;9.35;;
9934;SDS011;5006;41.828;23.478;2022-12-29T01:32:40;15.57;;;12.32;;
9934;SDS011;5006;41.828;23.478;2022-12-29T01:33:45;15.60;;;13.20;;
9934;SDS011;5006;41.828;23.478;2022-12-29T01:34:50;14.50;;;12.80;;
9934;SDS011;5006;41.828;23.478;2022-12-29T01:35:55;13.77;;;11.98;;
9934;SDS011;5006;41.828;23.478;2022-12-29T01:37:05;15.93;;;13.50;;
9934;SDS011;5006;41.828;23.478;2022-12-29T01:38:09;8.82;;;7.65;;
9934;SDS011;5006;41.828;23.478;2022-12-29T01:39:16;7.72;;;6.53;;
9934;SDS011;5006;41.828;23.478;2022-12-29T01:40:20;7.55;;;6.68;;
9934;SDS011;5006;41.828;23.478;2022-12-29T01:41:28;9.50;;;6.97;;
9934;SDS011;5006;41.828;23.478;2022-12-29T01:42:33;8.60;;;7.72;;
9934;SDS011;5006;41.828;23.478;2022-12-29T01:43:39;8.15;;;6.78;;
9934;SDS011;5006;41.828;23.478;2022-12-29T01:44:50;7.72;;;6.88;;
9934;SDS011;5006;41.828;23.478;2022-12-29T01:45:58;8.40;;;7.20;;
9934;SDS011;5006;41.828;23.478;2022-12-29T01:47:03;8.52;;;6.88;;
9934;SDS011;5006;41.828;23.478;2022-12-29T01:48:09;8.70;;;7.20;;
9934;SDS011;5006;41.828;23.478;2022-12-29T01:49:16;10.88;;;6.85;;
9934;SDS011;5006;41.828;23.478;2022-12-29T01:50:25;10.02;;;7.45;;
9934;SDS011;5006;41.828;23.478;2022-12-29T01:51:33;7.57;;;6.88;;
9934;SDS011;5006;41.828;23.478;2022-12-29T01:52:43;7.38;;;6.68;;
9934;SDS011;5006;41.828;23.478;2022-12-29T01:53:54;9.15;;;6.78;;
9934;SDS011;5006;41.828;23.478;2022-12-29T01:55:03;7.38;;;6.57;;
9934;SDS011;5006;41.828;23.478;2022-12-29T01:56:10;7.10;;;6.32;;
9934;SDS011;5006;41.828;23.478;2022-12-29T01:57:25;8.00;;;6.55;;
9934;SDS011;5006;41.828;23.478;2022-12-29T01:58:32;8.45;;;6.70;;
9934;SDS011;5006;41.828;23.478;2022-12-29T01:59:43;8.52;;;6.78;;
9934;SDS011;5006;41.828;23.478;2022-12-29T02:00:54;8.93;;;6.47;;
9934;SDS011;5006;41.828;23.478;2022-12-29T02:02:00;7.82;;;6.80;;
9934;SDS011;5006;41.828;23.478;2022-12-29T02:03:06;7.32;;;6.63;;
9934;SDS011;5006;41.828;23.478;2022-12-29T02:04:13;7.70;;;6.28;;
9934;SDS011;5006;41.828;23.478;2022-12-29T02:05:21;6.82;;;5.75;;
9934;SDS011;5006;41.828;23.478;2022-12-29T02:06:33;8.57;;;6.43;;
9934;SDS011;5006;41.828;23.478;2022-12-29T02:07:43;8.57;;;6.88;;
9934;SDS011;5006;41.828;23.478;2022-12-29T02:08:49;8.95;;;6.80;;
9934;SDS011;5006;41.828;23.478;2022-12-29T02:10:00;9.57;;;7.00;;
9934;SDS011;5006;41.828;23.478;2022-12-29T02:11:05;8.30;;;6.55;;
9934;SDS011;5006;41.828;23.478;2022-12-29T02:12:12;8.15;;;6.60;;
9934;SDS011;5006;41.828;23.478;2022-12-29T02:13:18;8.00;;;6.55;;
9934;SDS011;5006;41.828;23.478;2022-12-29T02:14:24;7.40;;;6.63;;
9934;SDS011;5006;41.828;23.478;2022-12-29T02:15:31;6.80;;;5.95;;
9934;SDS011;5006;41.828;23.478;2022-12-29T02:16:51;8.32;;;6.25;;
9934;SDS011;5006;41.828;23.478;2022-12-29T02:18:13;6.72;;;6.00;;
9934;SDS011;5006;41.828;23.478;2022-12-29T02:22:55;8.18;;;5.80;;
9934;SDS011;5006;41.828;23.478;2022-12-29T02:26:01;7.72;;;5.90;;
9934;SDS011;5006;41.828;23.478;2022-12-29T02:27:34;7.57;;;6.07;;
9934;SDS011;5006;41.828;23.478;2022-12-29T02:30:40;8.23;;;6.00;;
9934;SDS011;5006;41.828;23.478;2022-12-29T02:31:50;7.38;;;5.97;;
9934;SDS011;5006;41.828;23.478;2022-12-29T02:33:04;6.88;;;5.95;;
9934;SDS011;5006;41.828;23.478;2022-12-29T02:34:21;8.07;;;6.30;;
9934;SDS011;5006;41.828;23.478;2022-12-29T02:35:40;7.22;;;6.00;;
9934;SDS011;5006;41.828;23.478;2022-12-29T02:36:54;8.10;;;6.07;;
9934;SDS011;5006;41.828;23.478;2022-12-29T02:38:12;6.68;;;5.85;;
9934;SDS011;5006;41.828;23.478;2022-12-29T02:39:27;7.85;;;5.80;;
9934;SDS011;5006;41.828;23.478;2022-12-29T02:40:43;8.00;;;5.82;;
9934;SDS011;5006;41.828;23.478;2022-12-29T02:41:56;8.13;;;6.10;;
9934;SDS011;5006;41.828;23.478;2022-12-29T02:43:12;8.38;;;6.43;;
9934;SDS011;5006;41.828;23.478;2022-12-29T02:44:26;7.57;;;6.03;;
9934;SDS011;5006;41.828;23.478;2022-12-29T02:45:43;7.32;;;5.95;;
9934;SDS011;5006;41.828;23.478;2022-12-29T02:46:53;6.35;;;5.68;;
9934;SDS011;5006;41.828;23.478;2022-12-29T02:48:04;6.85;;;5.78;;
9934;SDS011;5006;41.828;23.478;2022-12-29T02:49:16;7.35;;;5.70;;
9934;SDS011;5006;41.828;23.478;2022-12-29T02:50:28;8.18;;;5.90;;
9934;SDS011;5006;41.828;23.478;2022-12-29T02:51:39;6.47;;;5.70;;
9934;SDS011;5006;41.828;23.478;2022-12-29T02:52:50;6.97;;;5.85;;
9934;SDS011;5006;41.828;23.478;2022-12-29T02:54:01;7.10;;;5.82;;
9934;SDS011;5006;41.828;23.478;2022-12-29T02:55:25;7.18;;;5.45;;
9934;SDS011;5006;41.828;23.478;2022-12-29T02:56:31;6.40;;;5.47;;
9934;SDS011;5006;41.828;23.478;2022-12-29T02:57:36;7.93;;;5.95;;
9934;SDS011;5006;41.828;23.478;2022-12-29T02:58:41;6.20;;;5.57;;
9934;SDS011;5006;41.828;23.478;2022-12-29T02:59:47;6.85;;;5.68;;
9934;SDS011;5006;41.828;23.478;2022-12-29T03:01:02;7.00;;;5.75;;
9934;SDS011;5006;41.828;23.478;2022-12-29T03:03:55;7.35;;;5.80;;
9934;SDS011;5006;41.828;23.478;2022-12-29T03:05:22;7.43;;;5.97;;
9934;SDS011;5006;41.828;23.478;2022-12-29T03:06:38;8.38;;;5.95;;
9934;SDS011;5006;41.828;23.478;2022-12-29T03:07:59;7.72;;;5.78;;
9934;SDS011;5006;41.828;23.478;2022-12-29T03:09:11;6.60;;;5.90;;
9934;SDS011;5006;41.828;23.478;2022-12-29T03:10:30;7.57;;;6.68;;
9934;SDS011;5006;41.828;23.478;2022-12-29T03:11:45;7.65;;;6.00;;
9934;SDS011;5006;41.828;23.478;2022-12-29T03:13:20;8.32;;;6.10;;
9934;SDS011;5006;41.828;23.478;2022-12-29T03:14:51;8.40;;;6.57;;
9934;SDS011;5006;41.828;23.478;2022-12-29T03:16:23;9.80;;;6.75;;
9934;SDS011;5006;41.828;23.478;2022-12-29T03:17:35;10.70;;;7.35;;
9934;SDS011;5006;41.828;23.478;2022-12-29T03:18:46;9.00;;;7.00;;
9934;SDS011;5006;41.828;23.478;2022-12-29T03:19:59;10.57;;;7.10;;
9934;SDS011;5006;41.828;23.478;2022-12-29T03:21:10;7.50;;;6.50;;
9934;SDS011;5006;41.828;23.478;2022-12-29T03:22:21;8.27;;;6.93;;
9934;SDS011;5006;41.828;23.478;2022-12-29T03:23:48;8.43;;;6.13;;
9934;SDS011;5006;41.828;23.478;2022-12-29T03:24:55;9.70;;;6.75;;
9934;SDS011;5006;41.828;23.478;2022-12-29T03:26:06;11.55;;;7.32;;
9934;SDS011;5006;41.828;23.478;2022-12-29T03:27:15;8.93;;;6.90;;
9934;SDS011;5006;41.828;23.478;2022-12-29T03:28:27;8.98;;;6.55;;
9934;SDS011;5006;41.828;23.478;2022-12-29T03:29:37;9.00;;;7.00;;
9934;SDS011;5006;41.828;23.478;2022-12-29T03:30:47;8.90;;;6.85;;
9934;SDS011;5006;41.828;23.478;2022-12-29T03:31:55;9.07;;;6.10;;
9934;SDS011;5006;41.828;23.478;2022-12-29T03:33:04;9.55;;;5.82;;
9934;SDS011;5006;41.828;23.478;2022-12-29T03:34:11;7.63;;;5.97;;
9934;SDS011;5006;41.828;23.478;2022-12-29T03:35:21;7.68;;;6.13;;
9934;SDS011;5006;41.828;23.478;2022-12-29T03:36:32;7.63;;;5.72;;
9934;SDS011;5006;41.828;23.478;2022-12-29T03:37:49;8.50;;;6.10;;
9934;SDS011;5006;41.828;23.478;2022-12-29T03:38:57;7.80;;;5.70;;
9934;SDS011;5006;41.828;23.478;2022-12-29T03:40:07;7.07;;;5.70;;
9934;SDS011;5006;41.828;23.478;2022-12-29T03:41:14;7.80;;;6.00;;
9934;SDS011;5006;41.828;23.478;2022-12-29T03:42:25;6.60;;;5.65;;
9934;SDS011;5006;41.828;23.478;2022-12-29T03:43:32;6.75;;;5.78;;
9934;SDS011;5006;41.828;23.478;2022-12-29T03:44:41;6.68;;;5.68;;
9934;SDS011;5006;41.828;23.478;2022-12-29T03:45:50;8.10;;;6.05;;
9934;SDS011;5006;41.828;23.478;2022-12-29T03:46:57;7.80;;;6.22;;
9934;SDS011;5006;41.828;23.478;2022-12-29T03:48:02;6.28;;;5.45;;
9934;SDS011;5006;41.828;23.478;2022-12-29T03:49:09;7.65;;;5.68;;
9934;SDS011;5006;41.828;23.478;2022-12-29T03:50:14;6.78;;;6.00;;
9934;SDS011;5006;41.828;23.478;2022-12-29T03:51:20;6.10;;;5.28;;
9934;SDS011;5006;41.828;23.478;2022-12-29T03:52:25;7.00;;;5.40;;
9934;SDS011;5006;41.828;23.478;2022-12-29T03:53:31;7.72;;;5.50;;
9934;SDS011;5006;41.828;23.478;2022-12-29T03:54:36;6.78;;;5.32;;
9934;SDS011;5006;41.828;23.478;2022-12-29T03:55:41;6.50;;;5.40;;
9934;SDS011;5006;41.828;23.478;2022-12-29T03:56:48;7.03;;;5.80;;
9934;SDS011;5006;41.828;23.478;2022-12-29T03:57:59;8.10;;;6.28;;
9934;SDS011;5006;41.828;23.478;2022-12-29T03:59:26;7.15;;;5.40;;
9934;SDS011;5006;41.828;23.478;2022-12-29T04:00:31;7.60;;;6.00;;
9934;SDS011;5006;41.828;23.478;2022-12-29T04:01:36;7.15;;;6.03;;
9934;SDS011;5006;41.828;23.478;2022-12-29T04:02:42;7.22;;;5.95;;
9934;SDS011;5006;41.828;23.478;2022-12-29T04:03:53;7.13;;;5.55;;
9934;SDS011;5006;41.828;23.478;2022-12-29T04:04:59;7.25;;;5.50;;
9934;SDS011;5006;41.828;23.478;2022-12-29T04:06:04;7.57;;;6.10;;
9934;SDS011;5006;41.828;23.478;2022-12-29T04:07:18;8.98;;;6.80;;
9934;SDS011;5006;41.828;23.478;2022-12-29T04:08:22;8.98;;;6.50;;
9934;SDS011;5006;41.828;23.478;2022-12-29T04:09:29;8.55;;;6.50;;
9934;SDS011;5006;41.828;23.478;2022-12-29T04:10:36;7.18;;;6.30;;
9934;SDS011;5006;41.828;23.478;2022-12-29T04:11:43;8.13;;;6.53;;
9934;SDS011;5006;41.828;23.478;2022-12-29T04:12:48;8.57;;;6.68;;
9934;SDS011;5006;41.828;23.478;2022-12-29T04:13:53;7.75;;;6.47;;
9934;SDS011;5006;41.828;23.478;2022-12-29T04:15:02;7.90;;;6.72;;
9934;SDS011;5006;41.828;23.478;2022-12-29T04:16:08;8.05;;;6.35;;
9934;SDS011;5006;41.828;23.478;2022-12-29T04:17:14;8.32;;;6.20;;
9934;SDS011;5006;41.828;23.478;2022-12-29T04:18:22;7.72;;;6.13;;
9934;SDS011;5006;41.828;23.478;2022-12-29T04:19:27;7.78;;;6.07;;
9934;SDS011;5006;41.828;23.478;2022-12-29T04:20:33;9.38;;;6.65;;
9934;SDS011;5006;41.828;23.478;2022-12-29T04:21:56;8.13;;;6.30;;
9934;SDS011;5006;41.828;23.478;2022-12-29T04:23:01;7.70;;;6.15;;
9934;SDS011;5006;41.828;23.478;2022-12-29T04:24:08;7.32;;;6.47;;
9934;SDS011;5006;41.828;23.478;2022-12-29T04:25:17;6.95;;;6.07;;
9934;SDS011;5006;41.828;23.478;2022-12-29T04:26:23;7.63;;;5.90;;
9934;SDS011;5006;41.828;23.478;2022-12-29T04:27:37;7.28;;;5.88;;
9934;SDS011;5006;41.828;23.478;2022-12-29T04:29:07;7.75;;;6.10;;
9934;SDS011;5006;41.828;23.478;2022-12-29T04:30:39;9.15;;;6.38;;
9934;SDS011;5006;41.828;23.478;2022-12-29T04:32:06;8.85;;;6.13;;
9934;SDS011;5006;41.828;23.478;2022-12-29T04:33:17;8.50;;;7.00;;
9934;SDS011;5006;41.828;23.478;2022-12-29T04:34:23;9.15;;;6.40;;
9934;SDS011;5006;41.828;23.478;2022-12-29T04:35:29;8.40;;;6.03;;
9934;SDS011;5006;41.828;23.478;2022-12-29T04:36:34;8.88;;;6.82;;
9934;SDS011;5006;41.828;23.478;2022-12-29T04:37:39;7.50;;;5.65;;
9934;SDS011;5006;41.828;23.478;2022-12-29T04:38:46;7.72;;;5.70;;
9934;SDS011;5006;41.828;23.478;2022-12-29T04:39:52;6.80;;;5.68;;
9934;SDS011;5006;41.828;23.478;2022-12-29T04:40:58;8.13;;;6.07;;
9934;SDS011;5006;41.828;23.478;2022-12-29T04:42:05;8.43;;;5.78;;
9934;SDS011;5006;41.828;23.478;2022-12-29T04:43:10;7.45;;;5.72;;
9934;SDS011;5006;41.828;23.478;2022-12-29T04:44:36;8.60;;;5.97;;
9934;SDS011;5006;41.828;23.478;2022-12-29T04:46:08;7.57;;;5.88;;
9934;SDS011;5006;41.828;23.478;2022-12-29T04:47:28;6.53;;;5.53;;
9934;SDS011;5006;41.828;23.478;2022-12-29T04:48:54;6.93;;;5.80;;
9934;SDS011;5006;41.828;23.478;2022-12-29T04:50:24;7.93;;;5.80;;
9934;SDS011;5006;41.828;23.478;2022-12-29T04:51:41;7.80;;;5.80;;
9934;SDS011;5006;41.828;23.478;2022-12-29T04:52:49;6.82;;;5.75;;
9934;SDS011;5006;41.828;23.478;2022-12-29T04:53:54;6.63;;;5.70;;
9934;SDS011;5006;41.828;23.478;2022-12-29T04:55:01;6.85;;;5.97;;
9934;SDS011;5006;41.828;23.478;2022-12-29T04:56:07;7.57;;;5.78;;
9934;SDS011;5006;41.828;23.478;2022-12-29T04:57:13;7.75;;;6.38;;
9934;SDS011;5006;41.828;23.478;2022-12-29T04:58:20;7.70;;;6.35;;
9934;SDS011;5006;41.828;23.478;2022-12-29T04:59:24;6.72;;;5.40;;
9934;SDS011;5006;41.828;23.478;2022-12-29T05:00:34;8.18;;;6.40;;
9934;SDS011;5006;41.828;23.478;2022-12-29T05:01:39;8.02;;;6.57;;
9934;SDS011;5006;41.828;23.478;2022-12-29T05:02:46;10.15;;;6.13;;
9934;SDS011;5006;41.828;23.478;2022-12-29T05:03:51;8.05;;;6.47;;
9934;SDS011;5006;41.828;23.478;2022-12-29T05:04:57;6.82;;;6.00;;
9934;SDS011;5006;41.828;23.478;2022-12-29T05:06:04;7.97;;;5.40;;
9934;SDS011;5006;41.828;23.478;2022-12-29T05:07:10;6.97;;;5.72;;
9934;SDS011;5006;41.828;23.478;2022-12-29T05:08:15;7.20;;;6.28;;
9934;SDS011;5006;41.828;23.478;2022-12-29T05:09:21;7.32;;;5.88;;
9934;SDS011;5006;41.828;23.478;2022-12-29T05:10:28;8.07;;;5.90;;
9934;SDS011;5006;41.828;23.478;2022-12-29T05:11:39;6.85;;;5.90;;
9934;SDS011;5006;41.828;23.478;2022-12-29T05:12:45;9.82;;;5.97;;
9934;SDS011;5006;41.828;23.478;2022-12-29T05:13:52;7.95;;;5.50;;
9934;SDS011;5006;41.828;23.478;2022-12-29T05:14:56;7.75;;;5.88;;
9934;SDS011;5006;41.828;23.478;2022-12-29T05:16:02;6.90;;;5.50;;
9934;SDS011;5006;41.828;23.478;2022-12-29T05:19:20;7.53;;;5.38;;
9934;SDS011;5006;41.828;23.478;2022-12-29T05:20:25;8.23;;;5.90;;
9934;SDS011;5006;41.828;23.478;2022-12-29T05:21:32;6.85;;;5.57;;
9934;SDS011;5006;41.828;23.478;2022-12-29T05:22:38;7.80;;;5.55;;
9934;SDS011;5006;41.828;23.478;2022-12-29T05:23:44;7.10;;;5.25;;
9934;SDS011;5006;41.828;23.478;2022-12-29T05:24:50;7.72;;;5.80;;
9934;SDS011;5006;41.828;23.478;2022-12-29T05:25:55;8.05;;;5.60;;
9934;SDS011;5006;41.828;23.478;2022-12-29T05:27:11;8.90;;;6.07;;
9934;SDS011;5006;41.828;23.478;2022-12-29T05:28:42;8.55;;;5.85;;
9934;SDS011;5006;41.828;23.478;2022-12-29T05:29:51;7.15;;;5.70;;
9934;SDS011;5006;41.828;23.478;2022-12-29T05:30:56;6.88;;;5.35;;
9934;SDS011;5006;41.828;23.478;2022-12-29T05:32:02;7.03;;;5.35;;
9934;SDS011;5006;41.828;23.478;2022-12-29T05:33:07;8.15;;;6.00;;
9934;SDS011;5006;41.828;23.478;2022-12-29T05:34:15;7.93;;;5.57;;
9934;SDS011;5006;41.828;23.478;2022-12-29T05:35:20;7.07;;;4.78;;
9934;SDS011;5006;41.828;23.478;2022-12-29T05:36:26;7.13;;;5.78;;
9934;SDS011;5006;41.828;23.478;2022-12-29T05:37:37;7.00;;;5.47;;
9934;SDS011;5006;41.828;23.478;2022-12-29T05:38:43;6.30;;;5.32;;
9934;SDS011;5006;41.828;23.478;2022-12-29T05:39:48;7.60;;;5.90;;
9934;SDS011;5006;41.828;23.478;2022-12-29T05:40:54;17.20;;;10.13;;
9934;SDS011;5006;41.828;23.478;2022-12-29T05:42:21;50.78;;;27.58;;
9934;SDS011;5006;41.828;23.478;2022-12-29T05:43:39;48.38;;;24.88;;
9934;SDS011;5006;41.828;23.478;2022-12-29T05:44:54;116.00;;;71.45;;
9934;SDS011;5006;41.828;23.478;2022-12-29T05:46:19;83.03;;;48.35;;
9934;SDS011;5006;41.828;23.478;2022-12-29T05:47:49;55.80;;;34.70;;
9934;SDS011;5006;41.828;23.478;2022-12-29T05:49:15;15.70;;;10.10;;
9934;SDS011;5006;41.828;23.478;2022-12-29T05:50:39;48.20;;;28.65;;
9934;SDS011;5006;41.828;23.478;2022-12-29T05:53:48;17.98;;;12.40;;
9934;SDS011;5006;41.828;23.478;2022-12-29T05:54:53;19.67;;;13.50;;
9934;SDS011;5006;41.828;23.478;2022-12-29T05:56:01;19.45;;;12.45;;
9934;SDS011;5006;41.828;23.478;2022-12-29T05:57:06;12.45;;;8.98;;
9934;SDS011;5006;41.828;23.478;2022-12-29T05:58:12;10.05;;;7.25;;
9934;SDS011;5006;41.828;23.478;2022-12-29T05:59:18;8.93;;;6.93;;
9934;SDS011;5006;41.828;23.478;2022-12-29T06:00:25;8.65;;;6.00;;
9934;SDS011;5006;41.828;23.478;2022-12-29T06:01:30;9.23;;;5.30;;
9934;SDS011;5006;41.828;23.478;2022-12-29T06:02:37;7.72;;;5.95;;
9934;SDS011;5006;41.828;23.478;2022-12-29T06:03:43;6.93;;;5.90;;
9934;SDS011;5006;41.828;23.478;2022-12-29T06:04:48;7.57;;;6.10;;
9934;SDS011;5006;41.828;23.478;2022-12-29T06:05:54;7.63;;;5.75;;
9934;SDS011;5006;41.828;23.478;2022-12-29T06:06:59;7.38;;;5.22;;
9934;SDS011;5006;41.828;23.478;2022-12-29T06:08:18;7.25;;;5.75;;
9934;SDS011;5006;41.828;23.478;2022-12-29T06:09:27;6.88;;;5.40;;
9934;SDS011;5006;41.828;23.478;2022-12-29T06:10:31;8.60;;;5.70;;
9934;SDS011;5006;41.828;23.478;2022-12-29T06:11:42;8.55;;;6.05;;
9934;SDS011;5006;41.828;23.478;2022-12-29T06:12:47;8.55;;;6.32;;
9934;SDS011;5006;41.828;23.478;2022-12-29T06:13:52;9.13;;;6.35;;
9934;SDS011;5006;41.828;23.478;2022-12-29T06:14:57;8.20;;;6.40;;
9934;SDS011;5006;41.828;23.478;2022-12-29T06:16:04;9.27;;;6.63;;
9934;SDS011;5006;41.828;23.478;2022-12-29T06:17:10;7.68;;;5.88;;
9934;SDS011;5006;41.828;23.478;2022-12-29T06:18:17;7.47;;;6.28;;
9934;SDS011;5006;41.828;23.478;2022-12-29T06:19:22;9.18;;;5.93;;
9934;SDS011;5006;41.828;23.478;2022-12-29T06:20:28;8.32;;;6.07;;
9934;SDS011;5006;41.828;23.478;2022-12-29T06:21:33;8.32;;;6.30;;
9934;SDS011;5006;41.828;23.478;2022-12-29T06:22:39;9.35;;;5.82;;
9934;SDS011;5006;41.828;23.478;2022-12-29T06:23:44;8.52;;;6.53;;
9934;SDS011;5006;41.828;23.478;2022-12-29T06:24:51;10.07;;;6.45;;
9934;SDS011;5006;41.828;23.478;2022-12-29T06:25:56;7.85;;;6.72;;
9934;SDS011;5006;41.828;23.478;2022-12-29T06:27:02;9.13;;;6.97;;
9934;SDS011;5006;41.828;23.478;2022-12-29T06:28:07;11.25;;;7.10;;
9934;SDS011;5006;41.828;23.478;2022-12-29T06:29:14;9.60;;;7.32;;
9934;SDS011;5006;41.828;23.478;2022-12-29T06:30:21;10.30;;;7.28;;
9934;SDS011;5006;41.828;23.478;2022-12-29T06:31:27;9.23;;;6.63;;
9934;SDS011;5006;41.828;23.478;2022-12-29T06:32:33;9.20;;;7.30;;
9934;SDS011;5006;41.828;23.478;2022-12-29T06:33:41;7.70;;;6.72;;
9934;SDS011;5006;41.828;23.478;2022-12-29T06:34:47;7.88;;;6.28;;
9934;SDS011;5006;41.828;23.478;2022-12-29T06:35:52;10.52;;;7.25;;
9934;SDS011;5006;41.828;23.478;2022-12-29T06:36:58;8.93;;;6.95;;
9934;SDS011;5006;41.828;23.478;2022-12-29T06:38:03;8.88;;;7.05;;
9934;SDS011;5006;41.828;23.478;2022-12-29T06:39:10;9.52;;;6.90;;
9934;SDS011;5006;41.828;23.478;2022-12-29T06:40:16;8.82;;;7.28;;
9934;SDS011;5006;41.828;23.478;2022-12-29T06:41:45;9.05;;;6.30;;
9934;SDS011;5006;41.828;23.478;2022-12-29T06:43:19;8.48;;;6.28;;
9934;SDS011;5006;41.828;23.478;2022-12-29T06:44:36;8.85;;;6.35;;
9934;SDS011;5006;41.828;23.478;2022-12-29T06:45:46;8.18;;;6.72;;
9934;SDS011;5006;41.828;23.478;2022-12-29T06:46:51;9.88;;;7.22;;
9934;SDS011;5006;41.828;23.478;2022-12-29T06:47:57;10.40;;;7.78;;
9934;SDS011;5006;41.828;23.478;2022-12-29T06:49:02;8.95;;;7.00;;
9934;SDS011;5006;41.828;23.478;2022-12-29T06:50:08;9.88;;;7.50;;
9934;SDS011;5006;41.828;23.478;2022-12-29T06:51:14;9.70;;;7.18;;
9934;SDS011;5006;41.828;23.478;2022-12-29T06:52:18;9.95;;;7.82;;
9934;SDS011;5006;41.828;23.478;2022-12-29T06:53:24;9.98;;;8.48;;
9934;SDS011;5006;41.828;23.478;2022-12-29T06:54:29;13.77;;;10.77;;
9934;SDS011;5006;41.828;23.478;2022-12-29T06:55:37;11.52;;;8.68;;
9934;SDS011;5006;41.828;23.478;2022-12-29T06:56:42;12.82;;;8.35;;
9934;SDS011;5006;41.828;23.478;2022-12-29T06:57:49;11.32;;;8.23;;
9934;SDS011;5006;41.828;23.478;2022-12-29T06:58:54;9.52;;;7.85;;
9934;SDS011;5006;41.828;23.478;2022-12-29T07:00:00;9.07;;;6.93;;
9934;SDS011;5006;41.828;23.478;2022-12-29T07:01:04;11.30;;;7.68;;
9934;SDS011;5006;41.828;23.478;2022-12-29T07:02:10;10.18;;;8.32;;
9934;SDS011;5006;41.828;23.478;2022-12-29T07:03:16;9.63;;;7.78;;
9934;SDS011;5006;41.828;23.478;2022-12-29T07:04:22;10.10;;;7.82;;
9934;SDS011;5006;41.828;23.478;2022-12-29T07:05:27;26.45;;;19.98;;
9934;SDS011;5006;41.828;23.478;2022-12-29T07:06:35;27.38;;;20.67;;
9934;SDS011;5006;41.828;23.478;2022-12-29T07:07:40;39.75;;;29.25;;
9934;SDS011;5006;41.828;23.478;2022-12-29T07:08:46;32.72;;;24.50;;
9934;SDS011;5006;41.828;23.478;2022-12-29T07:09:51;25.67;;;20.20;;
9934;SDS011;5006;41.828;23.478;2022-12-29T07:10:59;25.65;;;20.75;;
9934;SDS011;5006;41.828;23.478;2022-12-29T07:12:04;35.85;;;26.73;;
9934;SDS011;5006;41.828;23.478;2022-12-29T07:13:09;89.47;;;61.78;;
9934;SDS011;5006;41.828;23.478;2022-12-29T07:14:15;107.82;;;77.78;;
9934;SDS011;5006;41.828;23.478;2022-12-29T07:15:21;151.68;;;109.05;;
9934;SDS011;5006;41.828;23.478;2022-12-29T07:16:26;190.23;;;146.40;;
9934;SDS011;5006;41.828;23.478;2022-12-29T07:17:33;142.20;;;108.57;;
9934;SDS011;5006;41.828;23.478;2022-12-29T07:18:38;84.38;;;65.63;;
9934;SDS011;5006;41.828;23.478;2022-12-29T07:19:44;65.60;;;54.58;;